createdAt,value
2022-11-15T00:01:47.758Z,55.35
2022-11-15T00:04:36.525Z,56.28
2022-11-15T00:07:53.571Z,63.70
2022-11-15T00:10:34.464Z,55.00
2022-11-15T00:13:23.564Z,58.45
2022-11-15T00:16:13.251Z,56.45
2022-11-15T00:19:04.686Z,56.80
2022-11-15T00:21:53.654Z,59.47
2022-11-15T00:24:41.900Z,56.97
2022-11-15T00:27:31.839Z,59.10
2022-11-15T00:30:20.729Z,53.63
2022-11-15T00:33:10.172Z,56.00
2022-11-15T00:36:07.999Z,63.50
2022-11-15T00:38:56.701Z,57.90
2022-11-15T00:41:45.817Z,53.40
2022-11-15T00:44:34.297Z,55.42
2022-11-15T00:47:22.766Z,59.08
2022-11-15T00:50:15.124Z,62.25
2022-11-15T00:53:07.204Z,54.90
2022-11-15T00:55:55.833Z,51.35
2022-11-15T00:58:44.330Z,50.33
2022-11-15T01:01:33.596Z,47.33
2022-11-15T01:04:22.527Z,48.63
2022-11-15T01:07:11.383Z,47.30
2022-11-15T01:10:02.657Z,51.17
2022-11-15T01:12:51.577Z,48.03
2022-11-15T01:15:46.026Z,49.35
2022-11-15T01:18:35.051Z,50.45
2022-11-15T01:21:24.190Z,54.33
2022-11-15T01:24:16.677Z,55.55
2022-11-15T01:27:08.115Z,52.30
2022-11-15T01:29:56.881Z,50.40
2022-11-15T01:32:45.846Z,51.75
2022-11-15T01:35:34.408Z,52.53
2022-11-15T01:38:23.110Z,57.30
2022-11-15T01:41:20.107Z,58.95
2022-11-15T01:44:41.897Z,54.45
2022-11-15T01:47:35.438Z,53.42
2022-11-15T01:50:28.151Z,56.22
2022-11-15T01:53:16.760Z,55.38
2022-11-15T01:56:08.361Z,54.00
2022-11-15T01:58:59.894Z,53.72
2022-11-15T02:01:51.382Z,64.53
2022-11-15T02:04:44.363Z,54.10
2022-11-15T02:07:35.371Z,54.20
2022-11-15T02:10:26.736Z,55.35
2022-11-15T02:13:15.085Z,54.38
2022-11-15T02:16:13.196Z,74.85
2022-11-15T02:19:17.353Z,62.20
2022-11-15T02:22:18.996Z,59.00
2022-11-15T02:25:25.131Z,60.50
2022-11-15T02:28:46.001Z,46.88
2022-11-15T02:31:47.691Z,53.78
2022-11-15T02:34:47.491Z,52.42
2022-11-15T02:37:44.598Z,66.50
2022-11-15T02:40:44.303Z,52.95
2022-11-15T02:43:52.446Z,72.60
2022-11-15T02:47:00.840Z,69.75
2022-11-15T02:49:53.424Z,72.18
2022-11-15T02:52:42.260Z,67.32
2022-11-15T02:55:33.209Z,77.65
2022-11-15T02:59:01.489Z,61.45
2022-11-15T03:02:04.206Z,64.82
2022-11-15T03:04:59.474Z,57.60
2022-11-15T03:08:01.840Z,61.05
2022-11-15T03:11:01.059Z,54.35
2022-11-15T03:13:57.251Z,71.20
2022-11-15T03:16:52.441Z,59.33
2022-11-15T03:19:49.934Z,59.45
2022-11-15T03:22:43.784Z,71.57
2022-11-15T03:25:36.318Z,72.38
2022-11-15T03:28:29.523Z,57.78
2022-11-15T03:31:33.278Z,60.72
2022-11-15T03:34:31.730Z,62.40
2022-11-15T03:37:29.158Z,70.68
2022-11-15T03:40:18.740Z,60.55
2022-11-15T03:43:14.555Z,61.38
2022-11-15T03:46:08.464Z,56.10
2022-11-15T03:49:04.868Z,57.63
2022-11-15T03:51:54.454Z,61.85
2022-11-15T03:54:56.187Z,55.92
2022-11-15T03:57:45.777Z,58.80
2022-11-15T04:00:38.883Z,57.05
2022-11-15T04:03:28.493Z,57.15
2022-11-15T04:06:16.858Z,59.30
2022-11-15T04:09:05.787Z,55.33
2022-11-15T04:11:57.466Z,52.85
2022-11-15T04:15:06.548Z,48.78
2022-11-15T04:17:57.263Z,46.80
2022-11-15T04:20:58.107Z,46.78
2022-11-15T04:23:59.418Z,48.67
2022-11-15T04:26:48.171Z,49.05
2022-11-15T04:29:40.280Z,48.15
2022-11-15T04:32:30.094Z,49.45
2022-11-15T04:35:19.441Z,48.65
2022-11-15T04:38:10.060Z,53.20
2022-11-15T04:40:58.739Z,52.65
2022-11-15T04:43:47.543Z,52.05
2022-11-15T04:46:38.980Z,56.63
2022-11-15T04:49:27.683Z,51.33
2022-11-15T04:52:16.836Z,59.92
2022-11-15T04:55:08.338Z,55.42
2022-11-15T04:58:04.002Z,64.07
2022-11-15T05:00:53.294Z,56.15
2022-11-15T05:03:57.292Z,56.42
2022-11-15T05:06:45.627Z,53.55
2022-11-15T05:09:34.350Z,57.72
2022-11-15T05:12:23.054Z,60.58
2022-11-15T05:15:13.351Z,58.45
2022-11-15T05:18:03.458Z,67.32
2022-11-15T05:20:55.468Z,64.38
2022-11-15T05:23:44.942Z,59.58
2022-11-15T05:26:33.673Z,60.17
2022-11-15T05:29:22.351Z,63.00
2022-11-15T05:32:13.359Z,59.85
2022-11-15T05:35:02.500Z,60.90
2022-11-15T05:37:55.370Z,60.20
2022-11-15T05:40:47.118Z,59.13
2022-11-15T05:43:39.975Z,60.47
2022-11-15T05:46:29.922Z,57.75
2022-11-15T05:49:22.358Z,58.35
2022-11-15T05:52:13.654Z,61.72
2022-11-15T05:55:06.783Z,67.57
2022-11-15T05:57:57.036Z,61.27
2022-11-15T06:00:46.681Z,61.25
2022-11-15T06:03:35.263Z,61.33
2022-11-15T06:06:24.471Z,58.45
2022-11-15T06:09:12.772Z,57.75
2022-11-15T06:12:05.076Z,56.80
2022-11-15T06:14:53.651Z,55.70
2022-11-15T06:17:42.286Z,54.00
2022-11-15T06:20:31.961Z,52.90
2022-11-15T06:23:20.854Z,52.53
2022-11-15T06:26:09.700Z,54.33
2022-11-15T06:29:01.343Z,55.22
2022-11-15T06:31:49.630Z,53.08
2022-11-15T06:34:38.683Z,53.22
2022-11-15T06:37:27.302Z,54.78
2022-11-15T06:40:17.513Z,54.47
2022-11-15T06:43:06.850Z,52.38
2022-11-15T06:45:58.263Z,54.78
2022-11-15T06:48:47.016Z,53.65
2022-11-15T06:51:36.764Z,56.63
2022-11-15T06:54:25.381Z,54.45
2022-11-15T06:57:14.151Z,54.35
2022-11-15T07:00:02.860Z,55.63
2022-11-15T07:02:54.426Z,56.10
2022-11-15T07:05:42.961Z,58.08
2022-11-15T07:08:32.199Z,57.88
2022-11-15T07:11:21.129Z,57.33
2022-11-15T07:14:09.801Z,54.47
2022-11-15T07:16:58.485Z,53.90
2022-11-15T07:19:50.147Z,54.90
2022-11-15T07:22:38.679Z,58.67
2022-11-15T07:25:27.641Z,55.38
2022-11-15T07:28:16.299Z,55.35
2022-11-15T07:31:07.451Z,57.47
2022-11-15T07:33:56.559Z,55.35
2022-11-15T07:36:48.000Z,58.13
2022-11-15T07:39:36.365Z,56.53
2022-11-15T07:42:37.335Z,56.28
2022-11-15T07:45:29.948Z,54.45
2022-11-15T07:48:19.904Z,53.55
2022-11-15T07:51:13.863Z,54.70
2022-11-15T07:54:05.262Z,55.78
2022-11-15T07:56:54.040Z,57.83
2022-11-15T07:59:42.329Z,59.80
2022-11-15T08:02:31.006Z,57.35
2022-11-15T08:05:20.016Z,57.97
2022-11-15T08:08:09.688Z,58.47
2022-11-15T08:11:02.276Z,57.55
2022-11-15T08:13:50.805Z,57.08
2022-11-15T08:16:39.585Z,59.60
2022-11-15T08:19:27.958Z,62.50
2022-11-15T08:22:16.242Z,61.05
2022-11-15T08:25:04.704Z,61.25
2022-11-15T08:27:58.895Z,66.40
2022-11-15T08:30:48.298Z,64.13
2022-11-15T08:33:38.523Z,67.20
2022-11-15T08:36:26.887Z,68.20
2022-11-15T08:39:16.294Z,63.53
2022-11-15T08:42:04.885Z,62.35
2022-11-15T08:44:55.699Z,65.10
2022-11-15T08:47:45.677Z,62.83
2022-11-15T08:50:35.782Z,63.75
2022-11-15T08:53:24.188Z,65.70
2022-11-15T08:56:14.259Z,61.83
2022-11-15T08:59:05.010Z,62.33
2022-11-15T09:01:56.450Z,61.08
2022-11-15T09:04:45.646Z,56.67
2022-11-15T09:07:35.564Z,56.30
2022-11-15T09:10:25.382Z,59.90
2022-11-15T09:13:14.882Z,60.83
2022-11-15T09:16:05.079Z,59.35
2022-11-15T09:18:57.030Z,58.53
2022-11-15T09:21:45.655Z,60.65
2022-11-15T09:24:35.536Z,57.40
2022-11-15T09:27:24.165Z,58.83
2022-11-15T09:30:14.080Z,56.72
2022-11-15T09:33:03.228Z,60.30
2022-11-15T09:35:54.883Z,58.70
2022-11-15T09:38:43.397Z,59.75
2022-11-15T09:41:53.033Z,63.05
2022-11-15T09:45:03.229Z,70.30
2022-11-15T09:48:15.609Z,71.78
2022-11-15T09:51:09.033Z,65.22
2022-11-15T09:56:39.310Z,61.85
2022-11-15T09:59:26.321Z,65.45
2022-11-15T10:02:21.331Z,66.38
2022-11-15T10:04:51.823Z,64.63
2022-11-15T10:07:31.105Z,63.30
2022-11-15T10:10:07.363Z,63.65
2022-11-15T10:12:37.952Z,64.55
2022-11-15T10:15:16.379Z,62.92
2022-11-15T10:18:19.376Z,62.63
2022-11-15T10:20:52.902Z,71.85
2022-11-15T10:23:27.345Z,65.53
2022-11-15T10:26:06.383Z,64.10
2022-11-15T10:28:36.949Z,62.45
2022-11-15T10:31:07.451Z,66.60
2022-11-15T10:33:40.585Z,63.88
2022-11-15T10:36:34.548Z,65.03
2022-11-15T10:39:07.935Z,65.32
2022-11-15T10:41:43.432Z,64.82
2022-11-15T10:44:30.243Z,67.90
2022-11-15T10:47:26.367Z,59.50
2022-11-15T10:50:05.398Z,61.22
2022-11-15T10:52:38.651Z,63.90
2022-11-15T10:55:28.689Z,64.78
2022-11-15T10:58:09.629Z,63.10
2022-11-15T11:00:43.105Z,65.45
2022-11-15T11:03:32.739Z,63.83
2022-11-15T11:06:12.775Z,64.00
2022-11-15T11:08:43.715Z,66.38
2022-11-15T11:11:16.323Z,65.25
2022-11-15T11:13:46.676Z,68.57
2022-11-15T11:16:45.240Z,59.15
2022-11-15T11:19:34.444Z,61.25
2022-11-15T11:22:13.475Z,84.30
2022-11-15T11:24:49.692Z,91.30
2022-11-15T11:27:35.866Z,82.60
2022-11-15T11:30:12.962Z,62.92
2022-11-15T11:33:06.200Z,58.30
2022-11-15T11:35:43.835Z,64.57
2022-11-15T11:38:38.954Z,59.03
2022-11-15T11:41:17.965Z,60.90
2022-11-15T11:44:02.703Z,62.13
2022-11-15T11:46:51.795Z,62.60
2022-11-15T11:49:29.040Z,62.80
2022-11-15T11:52:06.355Z,64.30
2022-11-15T11:54:44.341Z,65.22
2022-11-15T11:57:19.873Z,69.28
2022-11-15T11:59:57.660Z,71.88
2022-11-15T12:02:32.976Z,69.07
2022-11-15T12:05:12.734Z,72.90
2022-11-15T12:07:45.149Z,77.35
2022-11-15T12:10:27.136Z,78.50
2022-11-15T12:13:06.177Z,79.03
2022-11-15T12:15:47.704Z,84.00
2022-11-15T12:18:20.529Z,100.88
2022-11-15T12:20:59.027Z,112.78
2022-11-15T12:23:32.636Z,117.35
2022-11-15T12:26:06.811Z,117.43
2022-11-15T12:29:04.510Z,128.10
2022-11-15T12:31:42.419Z,124.65
2022-11-15T12:34:33.835Z,133.75
2022-11-15T12:37:03.924Z,144.60
2022-11-15T12:40:04.378Z,138.65
2022-11-15T12:42:44.664Z,133.30
2022-11-15T12:45:30.517Z,140.38
2022-11-15T12:48:38.748Z,135.80
2022-11-15T12:51:09.657Z,132.57
2022-11-15T12:53:39.867Z,132.73
2022-11-15T12:56:25.026Z,137.65
2022-11-15T12:58:58.487Z,145.35
2022-11-15T13:01:58.997Z,130.52
2022-11-15T13:04:34.067Z,125.53
2022-11-15T13:07:06.143Z,121.97
2022-11-15T13:09:58.641Z,128.02
2022-11-15T13:12:54.452Z,130.95
2022-11-15T13:15:54.557Z,111.70
2022-11-15T13:18:36.038Z,125.53
2022-11-15T13:21:35.492Z,127.68
2022-11-15T13:24:05.544Z,131.20
2022-11-15T13:26:35.793Z,129.82
2022-11-15T13:29:05.906Z,121.78
2022-11-15T13:31:40.540Z,109.93
2022-11-15T13:34:49.933Z,112.45
2022-11-15T13:37:34.566Z,118.07
2022-11-15T13:40:28.853Z,121.20
2022-11-15T13:43:00.330Z,124.03
2022-11-15T13:45:30.912Z,130.32
2022-11-15T13:48:02.516Z,130.63
2022-11-15T13:50:37.676Z,134.27
2022-11-15T13:53:13.903Z,119.40
2022-11-15T13:55:44.050Z,103.13
2022-11-15T13:58:14.710Z,105.03
2022-11-15T14:00:49.252Z,118.07
2022-11-15T14:03:23.774Z,123.30
2022-11-15T14:06:08.425Z,137.82
2022-11-15T14:08:42.422Z,123.55
2022-11-15T14:11:17.742Z,110.20
2022-11-15T14:14:06.903Z,98.70
2022-11-15T14:16:39.294Z,98.40
2022-11-15T14:19:13.707Z,102.50
2022-11-15T14:22:15.006Z,99.65
2022-11-15T14:24:49.894Z,95.30
2022-11-15T14:27:21.800Z,95.18
2022-11-15T14:29:52.208Z,96.03
2022-11-15T14:32:24.705Z,93.45
2022-11-15T14:34:59.522Z,91.85
2022-11-15T14:37:32.890Z,97.30
2022-11-15T14:40:07.497Z,92.38
2022-11-15T14:42:37.801Z,94.00
2022-11-15T14:45:17.037Z,92.93
2022-11-15T14:47:47.676Z,94.47
2022-11-15T14:50:19.577Z,95.43
2022-11-15T14:52:50.355Z,94.05
2022-11-15T14:55:28.070Z,95.78
2022-11-15T14:57:58.499Z,95.22
2022-11-15T15:00:35.244Z,96.72
2022-11-15T15:03:08.151Z,95.07
2022-11-15T15:05:40.753Z,96.47
2022-11-15T15:08:11.428Z,100.68
2022-11-15T15:10:46.884Z,103.03
2022-11-15T15:13:21.506Z,100.82
2022-11-15T15:15:53.143Z,102.47
2022-11-15T15:18:23.995Z,105.57
2022-11-15T15:21:03.403Z,112.05
2022-11-15T15:23:33.690Z,120.72
2022-11-15T15:26:06.478Z,110.25
2022-11-15T15:28:37.154Z,112.88
2022-11-15T15:31:08.214Z,110.05
2022-11-15T15:33:38.278Z,106.78
2022-11-15T15:36:09.538Z,116.63
2022-11-15T15:38:40.881Z,113.60
2022-11-15T15:41:16.719Z,120.97
2022-11-15T15:43:49.064Z,115.78
2022-11-15T15:46:21.397Z,129.07
2022-11-15T15:48:51.529Z,132.98
2022-11-15T15:51:22.013Z,131.55
2022-11-15T15:53:53.831Z,121.35
2022-11-15T15:56:26.576Z,122.35
2022-11-15T15:58:56.728Z,123.15
2022-11-15T16:01:26.827Z,129.65
2022-11-15T16:03:56.810Z,130.98
2022-11-15T16:06:39.307Z,135.32
2022-11-15T16:09:17.438Z,127.53
2022-11-15T16:11:51.198Z,132.23
2022-11-15T16:14:21.270Z,134.07
2022-11-15T16:16:51.374Z,355.20
2022-11-15T16:19:21.494Z,149.38
2022-11-15T16:21:53.103Z,129.43
2022-11-15T16:24:23.855Z,128.05
2022-11-15T16:26:56.767Z,126.93
2022-11-15T16:29:27.070Z,127.77
2022-11-15T16:31:57.346Z,129.15
2022-11-15T16:34:31.145Z,135.15
2022-11-15T16:37:03.664Z,126.07
2022-11-15T16:39:33.886Z,127.90
2022-11-15T16:42:07.194Z,126.47
2022-11-15T16:44:37.452Z,133.20
2022-11-15T16:47:07.655Z,132.02
2022-11-15T16:49:39.218Z,132.32
2022-11-15T16:52:09.307Z,138.43
2022-11-15T16:54:39.589Z,146.70
2022-11-15T16:57:13.229Z,140.25
2022-11-15T16:59:43.333Z,156.20
2022-11-15T17:02:16.100Z,162.18
2022-11-15T17:04:46.159Z,154.20
2022-11-15T17:07:19.313Z,166.23
2022-11-15T17:09:49.495Z,174.02
2022-11-15T17:12:22.209Z,167.88
2022-11-15T17:14:55.013Z,162.75
2022-11-15T17:17:26.586Z,164.25
2022-11-15T17:19:57.105Z,166.98
2022-11-15T17:22:28.930Z,157.95
2022-11-15T17:24:59.375Z,159.88
2022-11-15T17:27:32.523Z,159.45
2022-11-15T17:30:02.686Z,156.57
2022-11-15T17:32:33.026Z,153.93
2022-11-15T17:35:03.155Z,158.25
2022-11-15T17:37:33.472Z,148.88
2022-11-15T17:40:04.789Z,144.40
2022-11-15T17:42:37.696Z,159.27
2022-11-15T17:45:10.399Z,149.75
2022-11-15T17:47:40.975Z,144.23
2022-11-15T17:50:12.875Z,144.65
2022-11-15T17:52:43.118Z,144.13
2022-11-15T17:55:13.525Z,143.07
2022-11-15T17:57:47.200Z,139.13
2022-11-15T18:00:19.852Z,137.02
2022-11-15T18:02:49.931Z,129.95
2022-11-15T18:05:20.237Z,136.80
2022-11-15T18:07:50.251Z,157.70
2022-11-15T18:10:21.217Z,142.10
2022-11-15T18:12:53.944Z,136.98
2022-11-15T18:15:24.378Z,130.73
2022-11-15T18:18:00.836Z,128.65
2022-11-15T18:20:31.590Z,132.88
2022-11-15T18:23:01.635Z,128.15
2022-11-15T18:25:32.016Z,134.95
2022-11-15T18:28:04.851Z,127.05
2022-11-15T18:30:42.157Z,133.05
2022-11-15T18:33:13.125Z,123.50
2022-11-15T18:35:43.163Z,128.35
2022-11-15T18:38:14.469Z,124.85
2022-11-15T18:40:44.630Z,124.50
2022-11-15T18:43:17.363Z,115.18
2022-11-15T18:45:51.143Z,119.10
2022-11-15T18:50:54.024Z,114.13
2022-11-15T18:53:25.535Z,116.95
2022-11-15T18:55:57.649Z,117.93
2022-11-15T18:58:33.036Z,115.72
2022-11-15T19:01:07.512Z,119.40
2022-11-15T19:03:39.559Z,123.18
2022-11-15T19:06:12.351Z,114.05
2022-11-15T19:08:43.644Z,118.40
2022-11-15T19:11:16.671Z,143.18
2022-11-15T19:13:50.981Z,131.17
2022-11-15T19:16:21.288Z,136.88
2022-11-15T19:18:51.854Z,150.30
2022-11-15T19:21:22.144Z,149.23
2022-11-15T19:23:53.164Z,151.95
2022-11-15T19:26:24.794Z,151.10
2022-11-15T19:28:58.949Z,155.48
2022-11-15T19:31:31.345Z,152.10
2022-11-15T19:34:03.414Z,152.48
2022-11-15T19:36:35.445Z,145.20
2022-11-15T19:39:08.652Z,148.77
2022-11-15T19:41:43.224Z,150.93
2022-11-15T19:44:16.296Z,141.95
2022-11-15T19:46:47.322Z,147.18
2022-11-15T19:49:17.411Z,143.30
2022-11-15T19:51:48.588Z,147.00
2022-11-15T19:54:18.875Z,143.73
2022-11-15T19:56:49.187Z,150.90
2022-11-15T19:59:21.900Z,138.43
2022-11-15T20:01:51.900Z,142.93
2022-11-15T20:04:22.335Z,143.45
2022-11-15T20:06:52.666Z,132.65
2022-11-15T20:09:26.012Z,142.55
2022-11-15T20:11:57.570Z,145.07
2022-11-15T20:14:30.540Z,139.40
2022-11-15T20:17:00.781Z,141.53
2022-11-15T20:19:30.835Z,146.02
2022-11-15T20:22:01.214Z,153.25
2022-11-15T20:24:31.524Z,147.05
2022-11-15T20:27:01.679Z,157.48
2022-11-15T20:29:34.278Z,153.70
2022-11-15T20:32:05.820Z,143.27
2022-11-15T20:34:37.548Z,138.90
2022-11-15T20:37:07.840Z,131.13
2022-11-15T20:39:37.832Z,133.07
2022-11-15T20:42:08.602Z,138.90
2022-11-15T20:44:41.295Z,143.73
2022-11-15T20:47:11.300Z,153.30
2022-11-15T20:49:41.676Z,167.45
2022-11-15T20:52:11.698Z,164.40
2022-11-15T20:54:41.687Z,156.93
2022-11-15T20:57:11.901Z,152.20
2022-11-15T20:59:44.705Z,154.73
2022-11-15T21:02:16.242Z,162.32
2022-11-15T21:04:46.491Z,149.00
2022-11-15T21:07:16.577Z,148.85
2022-11-15T21:09:58.962Z,144.27
2022-11-15T21:12:29.050Z,137.98
2022-11-15T21:15:01.731Z,141.80
2022-11-15T21:17:31.899Z,134.55
2022-11-15T21:20:01.924Z,126.40
2022-11-15T21:22:32.012Z,131.52
2022-11-15T21:25:04.081Z,124.65
2022-11-15T21:27:35.092Z,118.68
2022-11-15T21:30:09.423Z,118.50
2022-11-15T21:32:39.882Z,121.75
2022-11-15T21:35:10.598Z,123.55
2022-11-15T21:37:42.195Z,118.82
2022-11-15T21:40:14.069Z,114.18
2022-11-15T21:42:44.390Z,114.95
2022-11-15T21:45:18.301Z,121.50
2022-11-15T21:50:20.436Z,116.43
2022-11-15T21:52:50.460Z,113.45
2022-11-15T21:55:20.701Z,117.90
2022-11-15T21:57:50.692Z,117.78
2022-11-15T22:00:36.117Z,117.88
2022-11-15T22:03:06.611Z,125.65
2022-11-15T22:05:36.904Z,124.65
2022-11-15T22:08:07.333Z,125.40
2022-11-15T22:10:37.559Z,122.70
2022-11-15T22:13:07.625Z,131.05
2022-11-15T22:15:41.054Z,131.05
2022-11-15T22:18:11.482Z,141.27
2022-11-15T22:20:45.414Z,134.00
2022-11-15T22:23:15.712Z,133.68
2022-11-15T22:25:46.527Z,133.80
2022-11-15T22:28:16.712Z,134.82
2022-11-15T22:30:52.069Z,135.68
2022-11-15T22:33:24.424Z,130.75
2022-11-15T22:35:54.670Z,135.60
2022-11-15T22:38:25.599Z,137.38
2022-11-15T22:40:55.948Z,135.60
2022-11-15T22:43:27.867Z,138.25
2022-11-15T22:46:04.064Z,133.93
2022-11-15T22:48:36.450Z,127.53
2022-11-15T22:51:07.616Z,132.88
2022-11-15T22:53:37.914Z,133.38
2022-11-15T22:56:09.787Z,138.23
2022-11-15T22:58:39.947Z,144.45
2022-11-15T23:01:23.817Z,131.65
2022-11-15T23:03:56.270Z,137.45
2022-11-15T23:06:26.528Z,138.82
2022-11-15T23:08:56.682Z,135.63
2022-11-15T23:11:39.179Z,137.50
2022-11-15T23:14:09.371Z,151.57
2022-11-15T23:16:42.630Z,153.27
2022-11-15T23:19:14.788Z,142.13
2022-11-15T23:21:59.395Z,145.25
2022-11-15T23:24:29.827Z,150.88
2022-11-15T23:27:02.055Z,146.82
2022-11-15T23:29:53.263Z,136.65
2022-11-15T23:32:38.818Z,133.00
2022-11-15T23:35:09.641Z,128.77
2022-11-15T23:37:39.973Z,133.82
2022-11-15T23:40:12.476Z,150.25
2022-11-15T23:42:42.901Z,133.82
2022-11-15T23:45:14.076Z,160.50
2022-11-15T23:47:47.120Z,148.65
2022-11-15T23:50:17.501Z,168.90
2022-11-15T23:52:47.792Z,182.90
2022-11-15T23:55:18.338Z,149.77
2022-11-15T23:57:48.695Z,143.75
